Time;durP1;ratioP1;P1;durP2;ratioP2;P2;SDS_P1;SDS_P2;PMS_P1;PMS_P2;Temp;Humidity;BMP_temperature;BMP_pressure;BME280_temperature;BME280_humidity;BME280_pressure;Samples;Min_cycle;Max_cycle;Signal;HPM_P1;HPM_P2
2021/06/30 00:01:16;0.00;0.00;0.62;0.00;0.00;0.62;;;;;25.40;65.10;;;;;;2259444;61;856;-68
2021/06/30 00:03:41;0.00;0.00;0.62;0.00;0.00;0.62;;;;;25.40;65.10;;;;;;2259647;61;920;-69
2021/06/30 00:06:07;0.00;0.00;0.62;0.00;0.00;0.62;;;;;25.40;65.00;;;;;;2259638;61;959;-67
2021/06/30 00:08:33;0.00;0.00;0.62;0.00;0.00;0.62;;;;;25.40;65.00;;;;;;2259350;61;1021;-72
2021/06/30 00:10:59;0.00;0.00;0.62;0.00;0.00;0.62;;;;;25.40;65.10;;;;;;2259472;61;994;-68
2021/06/30 00:13:24;0.00;0.00;0.62;0.00;0.00;0.62;;;;;25.40;65.10;;;;;;2259625;61;918;-70
2021/06/30 00:15:50;0.00;0.00;0.62;0.00;0.00;0.62;;;;;25.40;65.10;;;;;;2259528;61;999;-67
2021/06/30 00:18:16;0.00;0.00;0.62;0.00;0.00;0.62;;;;;25.40;65.10;;;;;;2259542;61;1950;-70
2021/06/30 00:20:42;0.00;0.00;0.62;0.00;0.00;0.62;;;;;25.40;65.10;;;;;;2259682;61;1120;-67
2021/06/30 00:23:08;0.00;0.00;0.62;0.00;0.00;0.62;;;;;25.40;65.00;;;;;;2259606;61;1007;-67
2021/06/30 00:25:34;0.00;0.00;0.62;0.00;0.00;0.62;;;;;25.30;65.10;;;;;;2259577;61;990;-69
2021/06/30 00:27:59;0.00;0.00;0.62;0.00;0.00;0.62;;;;;25.40;65.10;;;;;;2259524;61;915;-69
2021/06/30 00:30:25;0.00;0.00;0.62;0.00;0.00;0.62;;;;;25.40;65.10;;;;;;2259517;61;966;-70
2021/06/30 00:32:51;0.00;0.00;0.62;0.00;0.00;0.62;;;;;25.40;65.10;;;;;;2259429;61;1042;-68
2021/06/30 00:35:17;0.00;0.00;0.62;0.00;0.00;0.62;;;;;25.30;65.10;;;;;;2255537;61;954;-71
2021/06/30 00:37:42;0.00;0.00;0.62;0.00;0.00;0.62;;;;;25.30;65.10;;;;;;2259404;61;955;-67
2021/06/30 00:40:09;0.00;0.00;0.62;0.00;0.00;0.62;;;;;25.40;65.00;;;;;;2255871;61;2017;-68
2021/06/30 00:42:34;0.00;0.00;0.62;0.00;0.00;0.62;;;;;25.30;65.10;;;;;;2255556;61;859;-68
2021/06/30 00:45:00;0.00;0.00;0.62;0.00;0.00;0.62;;;;;25.40;65.00;;;;;;2255795;61;937;-68
2021/06/30 00:47:26;0.00;0.00;0.62;0.00;0.00;0.62;;;;;25.30;65.00;;;;;;2255658;61;970;-69
2021/06/30 00:49:51;0.00;0.00;0.62;0.00;0.00;0.62;;;;;25.30;65.10;;;;;;2252340;61;1036;-71
2021/06/30 00:52:17;0.00;0.00;0.62;0.00;0.00;0.62;;;;;25.30;65.10;;;;;;2259290;61;954;-71
2021/06/30 00:54:43;0.00;0.00;0.62;0.00;0.00;0.62;;;;;25.30;65.10;;;;;;2259314;61;877;-67
2021/06/30 00:57:09;0.00;0.00;0.62;0.00;0.00;0.62;;;;;25.30;65.10;;;;;;2259098;61;1069;-67
2021/06/30 00:59:36;0.00;0.00;0.62;0.00;0.00;0.62;;;;;25.30;65.10;;;;;;2259360;61;2001;-73
2021/06/30 01:02:01;0.00;0.00;0.62;0.00;0.00;0.62;;;;;25.30;65.10;;;;;;2255541;61;867;-69
2021/06/30 01:04:27;0.00;0.00;0.62;0.00;0.00;0.62;;;;;25.30;65.10;;;;;;2259572;61;891;-69
2021/06/30 01:06:52;0.00;0.00;0.62;0.00;0.00;0.62;;;;;25.30;65.10;;;;;;2258742;61;942;-67
2021/06/30 01:09:18;0.00;0.00;0.62;0.00;0.00;0.62;;;;;25.30;65.10;;;;;;2255322;61;1015;-67
2021/06/30 01:11:44;0.00;0.00;0.62;0.00;0.00;0.62;;;;;25.30;65.10;;;;;;2259345;61;890;-69
2021/06/30 01:14:09;0.00;0.00;0.62;0.00;0.00;0.62;;;;;25.30;65.00;;;;;;2259135;61;963;-70
2021/06/30 01:16:35;0.00;0.00;0.62;0.00;0.00;0.62;;;;;25.30;65.00;;;;;;2259179;61;996;-72
2021/06/30 01:19:01;0.00;0.00;0.62;0.00;0.00;0.62;;;;;25.30;65.00;;;;;;2259510;61;1942;-68
2021/06/30 01:21:26;0.00;0.00;0.62;0.00;0.00;0.62;;;;;25.30;65.00;;;;;;2259519;61;1015;-67
2021/06/30 01:23:52;0.00;0.00;0.62;0.00;0.00;0.62;;;;;25.30;65.00;;;;;;2259387;61;995;-72
2021/06/30 01:26:17;0.00;0.00;0.62;0.00;0.00;0.62;;;;;25.30;65.00;;;;;;2255713;61;946;-70
2021/06/30 01:28:43;0.00;0.00;0.62;0.00;0.00;0.62;;;;;25.30;65.00;;;;;;2255572;61;926;-71
2021/06/30 01:31:09;0.00;0.00;0.62;0.00;0.00;0.62;;;;;25.30;65.00;;;;;;2259266;61;981;-67
2021/06/30 01:33:34;0.00;0.00;0.62;0.00;0.00;0.62;;;;;25.30;65.00;;;;;;2255489;61;959;-71
2021/06/30 01:36:00;0.00;0.00;0.62;0.00;0.00;0.62;;;;;25.30;65.00;;;;;;2255693;61;900;-67
2021/06/30 01:38:27;0.00;0.00;0.62;0.00;0.00;0.62;;;;;25.30;65.00;;;;;;2259236;61;2457;-67
2021/06/30 01:40:54;0.00;0.00;0.62;0.00;0.00;0.62;;;;;25.30;65.00;;;;;;2259286;61;1059;-67
2021/06/30 01:43:19;0.00;0.00;0.62;0.00;0.00;0.62;;;;;25.30;65.00;;;;;;2259063;61;1179;-69
2021/06/30 01:45:45;0.00;0.00;0.62;0.00;0.00;0.62;;;;;25.30;65.00;;;;;;2255591;61;919;-68
2021/06/30 01:48:11;0.00;0.00;0.62;0.00;0.00;0.62;;;;;25.30;64.90;;;;;;2259210;61;965;-69
2021/06/30 01:50:36;0.00;0.00;0.62;0.00;0.00;0.62;;;;;25.30;64.90;;;;;;2259238;61;917;-67
2021/06/30 01:53:03;0.00;0.00;0.62;0.00;0.00;0.62;;;;;25.30;64.90;;;;;;2259380;61;979;-70
2021/06/30 01:55:28;0.00;0.00;0.62;0.00;0.00;0.62;;;;;25.30;64.90;;;;;;2255281;61;987;-70
2021/06/30 01:57:54;0.00;0.00;0.62;0.00;0.00;0.62;;;;;25.30;64.90;;;;;;2259021;61;960;-68
2021/06/30 02:00:20;158730.00;0.53;274.85;0.00;0.00;0.62;;;;;25.30;64.90;;;;;;2255374;61;2021;-68
2021/06/30 02:02:46;0.00;0.00;0.62;0.00;0.00;0.62;;;;;25.30;64.90;;;;;;2259553;61;1260;-67
2021/06/30 02:05:17;35353.00;0.12;61.85;0.00;0.00;0.62;;;;;25.30;64.70;;;;;;2251536;61;1191;-69
2021/06/30 02:07:49;0.00;0.00;0.62;0.00;0.00;0.62;;;;;25.30;64.70;;;;;;2259274;61;823;-67
2021/06/30 02:10:15;0.00;0.00;0.62;0.00;0.00;0.62;;;;;25.30;64.60;;;;;;2259147;61;1057;-71
2021/06/30 02:12:41;0.00;0.00;0.62;0.00;0.00;0.62;;;;;25.30;64.70;;;;;;2255523;61;1080;-69
2021/06/30 02:15:15;30934.00;0.10;54.20;0.00;0.00;0.62;;;;;25.30;64.70;;;;;;2259422;61;1223;-67
2021/06/30 02:17:40;0.00;0.00;0.62;0.00;0.00;0.62;;;;;25.30;64.70;;;;;;2259706;61;1128;-70
2021/06/30 02:20:08;56348.00;0.19;98.16;0.00;0.00;0.62;;;;;25.30;64.60;;;;;;2259652;61;2074;-69
2021/06/30 02:22:33;0.00;0.00;0.62;0.00;0.00;0.62;;;;;25.30;64.70;;;;;;2259783;61;1131;-70
2021/06/30 02:24:59;0.00;0.00;0.62;0.00;0.00;0.62;;;;;25.30;64.70;;;;;;2256155;61;1224;-68
2021/06/30 02:27:25;0.00;0.00;0.62;0.00;0.00;0.62;;;;;25.30;64.60;;;;;;2260105;61;919;-74
2021/06/30 02:29:51;0.00;0.00;0.62;0.00;0.00;0.62;;;;;25.30;64.70;;;;;;2259990;61;1495;-72
2021/06/30 02:32:17;0.00;0.00;0.62;0.00;0.00;0.62;;;;;25.20;64.60;;;;;;2256283;61;1105;-68
2021/06/30 02:34:42;0.00;0.00;0.62;0.00;0.00;0.62;;;;;25.30;64.60;;;;;;2259677;61;963;-69
2021/06/30 02:37:08;0.00;0.00;0.62;0.00;0.00;0.62;;;;;25.20;64.60;;;;;;2260014;61;1593;-67
2021/06/30 02:39:34;0.00;0.00;0.62;0.00;0.00;0.62;;;;;25.20;64.50;;;;;;2260087;61;1939;-73
2021/06/30 02:41:59;0.00;0.00;0.62;0.00;0.00;0.62;;;;;25.30;64.60;;;;;;2259867;61;1762;-69
2021/06/30 02:44:25;0.00;0.00;0.62;0.00;0.00;0.62;;;;;25.30;64.60;;;;;;2259598;61;994;-68
2021/06/30 02:46:51;0.00;0.00;0.62;0.00;0.00;0.62;;;;;25.30;64.60;;;;;;2259752;61;977;-69
2021/06/30 02:49:16;0.00;0.00;0.62;0.00;0.00;0.62;;;;;25.20;64.60;;;;;;2259621;61;971;-71
2021/06/30 02:51:42;0.00;0.00;0.62;0.00;0.00;0.62;;;;;25.20;64.60;;;;;;2259814;61;828;-67
2021/06/30 02:54:07;0.00;0.00;0.62;0.00;0.00;0.62;;;;;25.20;64.70;;;;;;2259818;61;951;-69
2021/06/30 02:56:33;0.00;0.00;0.62;0.00;0.00;0.62;;;;;25.20;64.60;;;;;;2259547;61;1125;-71
2021/06/30 02:58:59;0.00;0.00;0.62;0.00;0.00;0.62;;;;;25.20;64.60;;;;;;2259500;61;2014;-68
2021/06/30 03:01:24;0.00;0.00;0.62;0.00;0.00;0.62;;;;;25.20;64.60;;;;;;2259538;61;1089;-72
2021/06/30 03:03:50;0.00;0.00;0.62;0.00;0.00;0.62;;;;;25.20;64.50;;;;;;2259731;61;896;-69
2021/06/30 03:06:15;0.00;0.00;0.62;0.00;0.00;0.62;;;;;25.20;64.60;;;;;;2260146;61;958;-69
2021/06/30 03:08:41;0.00;0.00;0.62;0.00;0.00;0.62;;;;;25.20;64.70;;;;;;2260007;61;921;-67
2021/06/30 03:11:07;0.00;0.00;0.62;0.00;0.00;0.62;;;;;25.20;64.50;;;;;;2259614;61;946;-69
2021/06/30 03:13:32;0.00;0.00;0.62;0.00;0.00;0.62;;;;;25.20;64.70;;;;;;2259484;61;974;-68
2021/06/30 03:15:58;0.00;0.00;0.62;0.00;0.00;0.62;;;;;25.20;64.70;;;;;;2255667;61;1077;-69
2021/06/30 03:18:23;0.00;0.00;0.62;0.00;0.00;0.62;;;;;25.20;64.60;;;;;;2259957;61;2022;-67
2021/06/30 03:20:49;0.00;0.00;0.62;0.00;0.00;0.62;;;;;25.20;64.60;;;;;;2259706;61;946;-68
2021/06/30 03:23:15;0.00;0.00;0.62;0.00;0.00;0.62;;;;;25.20;64.60;;;;;;2260110;61;942;-68
2021/06/30 03:25:40;0.00;0.00;0.62;0.00;0.00;0.62;;;;;25.20;64.60;;;;;;2259814;61;918;-68
2021/06/30 03:28:06;0.00;0.00;0.62;0.00;0.00;0.62;;;;;25.20;64.60;;;;;;2255549;61;1166;-71
2021/06/30 03:30:34;0.00;0.00;0.62;0.00;0.00;0.62;;;;;25.20;64.60;;;;;;2255685;61;1206;-70
2021/06/30 03:32:59;0.00;0.00;0.62;0.00;0.00;0.62;;;;;25.20;64.60;;;;;;2259822;61;1122;-70
2021/06/30 03:35:25;0.00;0.00;0.62;0.00;0.00;0.62;;;;;25.20;64.60;;;;;;2259544;61;996;-68
2021/06/30 03:37:51;0.00;0.00;0.62;0.00;0.00;0.62;;;;;25.20;64.60;;;;;;2256067;61;1057;-69
2021/06/30 03:40:16;0.00;0.00;0.62;0.00;0.00;0.62;;;;;25.20;64.60;;;;;;2259436;61;1954;-69
2021/06/30 03:42:42;0.00;0.00;0.62;0.00;0.00;0.62;;;;;25.20;64.70;;;;;;2259469;61;1180;-69
2021/06/30 03:45:08;0.00;0.00;0.62;0.00;0.00;0.62;;;;;25.20;64.70;;;;;;2259461;61;955;-67
2021/06/30 03:47:34;0.00;0.00;0.62;0.00;0.00;0.62;;;;;25.20;64.70;;;;;;2259695;61;833;-73
2021/06/30 03:49:59;0.00;0.00;0.62;0.00;0.00;0.62;;;;;25.20;64.70;;;;;;2259706;61;1018;-75
2021/06/30 03:52:25;65494.00;0.22;113.97;0.00;0.00;0.62;;;;;25.20;64.70;;;;;;2259863;61;1082;-67
2021/06/30 03:54:53;0.00;0.00;0.62;0.00;0.00;0.62;;;;;25.20;64.70;;;;;;2259346;61;944;-73
2021/06/30 03:57:18;0.00;0.00;0.62;0.00;0.00;0.62;;;;;25.20;64.70;;;;;;2259749;61;863;-68
2021/06/30 03:59:44;0.00;0.00;0.62;0.00;0.00;0.62;;;;;25.20;64.60;;;;;;2259641;61;1939;-70
2021/06/30 04:02:10;0.00;0.00;0.62;0.00;0.00;0.62;;;;;25.20;64.60;;;;;;2255785;61;942;-69
2021/06/30 04:04:36;0.00;0.00;0.62;0.00;0.00;0.62;;;;;25.20;64.60;;;;;;2259892;61;1057;-70
2021/06/30 04:07:01;0.00;0.00;0.62;0.00;0.00;0.62;;;;;25.20;64.60;;;;;;2259596;61;877;-69
2021/06/30 04:09:27;0.00;0.00;0.62;0.00;0.00;0.62;;;;;25.10;64.70;;;;;;2259617;61;1001;-69
2021/06/30 04:11:53;0.00;0.00;0.62;0.00;0.00;0.62;;;;;25.10;64.60;;;;;;2255873;61;900;-68
2021/06/30 04:14:18;0.00;0.00;0.62;0.00;0.00;0.62;;;;;25.10;64.70;;;;;;2259587;61;994;-68
2021/06/30 04:16:44;0.00;0.00;0.62;0.00;0.00;0.62;;;;;25.10;64.70;;;;;;2259394;61;924;-72
2021/06/30 04:19:09;0.00;0.00;0.62;0.00;0.00;0.62;;;;;25.20;64.70;;;;;;2259737;61;2024;-71
2021/06/30 04:21:35;0.00;0.00;0.62;0.00;0.00;0.62;;;;;25.10;64.70;;;;;;2259688;61;1037;-74
2021/06/30 04:24:01;0.00;0.00;0.62;0.00;0.00;0.62;;;;;25.10;64.70;;;;;;2259572;61;847;-68
2021/06/30 04:26:26;0.00;0.00;0.62;0.00;0.00;0.62;;;;;25.10;64.70;;;;;;2259263;61;903;-67
2021/06/30 04:28:52;0.00;0.00;0.62;0.00;0.00;0.62;;;;;25.10;64.70;;;;;;2259591;61;895;-75
2021/06/30 04:31:18;0.00;0.00;0.62;0.00;0.00;0.62;;;;;25.10;64.70;;;;;;2259290;61;962;-72
2021/06/30 04:33:44;0.00;0.00;0.62;0.00;0.00;0.62;;;;;25.10;64.70;;;;;;2259456;61;818;-71
2021/06/30 04:36:09;0.00;0.00;0.62;0.00;0.00;0.62;;;;;25.10;64.60;;;;;;2259789;61;1329;-68
2021/06/30 04:38:35;0.00;0.00;0.62;0.00;0.00;0.62;;;;;25.10;64.70;;;;;;2259233;61;2014;-71
2021/06/30 04:41:01;0.00;0.00;0.62;0.00;0.00;0.62;;;;;25.10;64.60;;;;;;2259381;61;1012;-68
2021/06/30 04:43:26;0.00;0.00;0.62;0.00;0.00;0.62;;;;;25.10;64.60;;;;;;2259357;61;880;-71
2021/06/30 04:45:52;0.00;0.00;0.62;0.00;0.00;0.62;;;;;25.10;64.60;;;;;;2259235;61;969;-71
2021/06/30 04:48:19;0.00;0.00;0.62;0.00;0.00;0.62;;;;;25.10;64.50;;;;;;2259285;61;944;-72
2021/06/30 04:50:45;0.00;0.00;0.62;0.00;0.00;0.62;;;;;25.10;64.60;;;;;;2259493;61;941;-69
2021/06/30 04:53:11;0.00;0.00;0.62;0.00;0.00;0.62;;;;;25.10;64.50;;;;;;2255683;61;977;-67
2021/06/30 04:55:36;101006.00;0.34;175.31;0.00;0.00;0.62;;;;;25.10;64.60;;;;;;2259378;61;888;-70
2021/06/30 04:58:02;0.00;0.00;0.62;0.00;0.00;0.62;;;;;25.10;64.60;;;;;;2259293;61;950;-68
2021/06/30 05:00:27;0.00;0.00;0.62;0.00;0.00;0.62;;;;;25.10;64.50;;;;;;2259281;61;1955;-74
2021/06/30 05:02:53;0.00;0.00;0.62;0.00;0.00;0.62;;;;;25.10;64.50;;;;;;2259513;61;970;-71
2021/06/30 05:05:19;0.00;0.00;0.62;0.00;0.00;0.62;;;;;25.10;64.50;;;;;;2259322;61;944;-69
2021/06/30 05:07:44;0.00;0.00;0.62;0.00;0.00;0.62;;;;;25.10;64.50;;;;;;2259685;61;932;-70
2021/06/30 05:10:10;0.00;0.00;0.62;0.00;0.00;0.62;;;;;25.10;64.50;;;;;;2259225;61;969;-67
2021/06/30 05:12:36;0.00;0.00;0.62;0.00;0.00;0.62;;;;;25.10;64.30;;;;;;2259298;61;987;-69
2021/06/30 05:15:01;0.00;0.00;0.62;0.00;0.00;0.62;;;;;25.10;64.30;;;;;;2259631;61;918;-74
2021/06/30 05:17:27;0.00;0.00;0.62;0.00;0.00;0.62;;;;;25.10;64.50;;;;;;2260270;61;965;-70
2021/06/30 05:19:52;0.00;0.00;0.62;0.00;0.00;0.62;;;;;25.10;64.30;;;;;;2259214;61;1942;-68
2021/06/30 05:22:18;0.00;0.00;0.62;0.00;0.00;0.62;;;;;25.10;64.30;;;;;;2259478;61;949;-70
2021/06/30 05:24:43;0.00;0.00;0.62;0.00;0.00;0.62;;;;;25.10;64.30;;;;;;2259157;61;1042;-70
2021/06/30 05:27:10;0.00;0.00;0.62;0.00;0.00;0.62;;;;;25.10;64.30;;;;;;2259182;61;1207;-67
2021/06/30 05:29:35;0.00;0.00;0.62;0.00;0.00;0.62;;;;;25.10;64.30;;;;;;2259093;61;1209;-70
2021/06/30 05:32:01;0.00;0.00;0.62;0.00;0.00;0.62;;;;;25.10;64.30;;;;;;2259334;61;1135;-71
2021/06/30 05:34:26;0.00;0.00;0.62;0.00;0.00;0.62;;;;;25.10;64.20;;;;;;2259283;61;1183;-67
2021/06/30 05:36:52;0.00;0.00;0.62;0.00;0.00;0.62;;;;;25.10;64.20;;;;;;2259377;61;1226;-69
2021/06/30 05:39:19;0.00;0.00;0.62;0.00;0.00;0.62;;;;;25.10;64.20;;;;;;2259115;61;1939;-71
2021/06/30 05:41:44;0.00;0.00;0.62;0.00;0.00;0.62;;;;;25.20;64.20;;;;;;2255545;61;984;-70
2021/06/30 05:44:11;0.00;0.00;0.62;0.00;0.00;0.62;;;;;25.20;64.10;;;;;;2255654;61;1002;-69
2021/06/30 05:46:38;0.00;0.00;0.62;0.00;0.00;0.62;;;;;25.10;64.10;;;;;;2259718;61;919;-67
2021/06/30 05:49:03;0.00;0.00;0.62;0.00;0.00;0.62;;;;;25.20;64.10;;;;;;2259312;61;918;-70
2021/06/30 05:51:29;0.00;0.00;0.62;0.00;0.00;0.62;;;;;25.20;64.10;;;;;;2259793;61;908;-70
2021/06/30 05:53:55;0.00;0.00;0.62;0.00;0.00;0.62;;;;;25.20;64.00;;;;;;2259876;61;975;-71
2021/06/30 05:56:20;0.00;0.00;0.62;0.00;0.00;0.62;;;;;25.20;64.00;;;;;;2260062;61;812;-68
2021/06/30 05:58:46;0.00;0.00;0.62;0.00;0.00;0.62;;;;;25.20;64.00;;;;;;2260212;61;1943;-69
2021/06/30 06:01:11;0.00;0.00;0.62;0.00;0.00;0.62;;;;;25.20;64.00;;;;;;2260043;61;820;-72
2021/06/30 06:03:37;0.00;0.00;0.62;0.00;0.00;0.62;;;;;25.20;63.80;;;;;;2256110;61;1294;-67
2021/06/30 06:06:03;86856.00;0.29;150.88;0.00;0.00;0.62;;;;;25.20;64.00;;;;;;2260175;61;984;-69
2021/06/30 06:08:30;0.00;0.00;0.62;0.00;0.00;0.62;;;;;25.20;64.00;;;;;;2260197;61;876;-67
2021/06/30 06:10:56;0.00;0.00;0.62;0.00;0.00;0.62;;;;;25.20;63.80;;;;;;2252964;61;964;-68
2021/06/30 06:13:22;12931.00;0.04;23.03;0.00;0.00;0.62;;;;;25.20;63.80;;;;;;2259899;61;813;-70
2021/06/30 06:15:48;0.00;0.00;0.62;0.00;0.00;0.62;;;;;25.20;63.70;;;;;;2259937;61;996;-69
2021/06/30 06:18:13;0.00;0.00;0.62;0.00;0.00;0.62;;;;;25.20;63.40;;;;;;2260060;61;2038;-72
2021/06/30 06:20:39;70436.00;0.23;122.51;0.00;0.00;0.62;;;;;25.20;63.40;;;;;;2260143;61;926;-67
2021/06/30 06:23:04;0.00;0.00;0.62;0.00;0.00;0.62;;;;;25.20;63.70;;;;;;2259794;61;971;-70
2021/06/30 06:25:30;0.00;0.00;0.62;0.00;0.00;0.62;;;;;25.20;63.00;;;;;;2259867;61;914;-68
2021/06/30 06:27:56;0.00;0.00;0.62;0.00;0.00;0.62;;;;;25.20;63.00;;;;;;2259906;61;832;-69
2021/06/30 06:30:26;51485.00;0.17;89.75;0.00;0.00;0.62;;;;;25.20;63.00;;;;;;2259762;61;950;-69
2021/06/30 06:32:52;0.00;0.00;0.62;0.00;0.00;0.62;;;;;25.20;62.90;;;;;;2256443;61;858;-70
2021/06/30 06:35:17;0.00;0.00;0.62;0.00;0.00;0.62;;;;;25.30;62.80;;;;;;2259967;61;979;-69
2021/06/30 06:37:43;28902.00;0.10;50.68;0.00;0.00;0.62;;;;;25.30;62.80;;;;;;2260214;61;1013;-70
2021/06/30 06:40:09;0.00;0.00;0.62;0.00;0.00;0.62;;;;;25.30;62.50;;;;;;2256049;61;2025;-68
2021/06/30 06:42:37;0.00;0.00;0.62;0.00;0.00;0.62;;;;;25.30;62.50;;;;;;2259745;61;989;-70
2021/06/30 06:45:03;135334.00;0.45;234.53;0.00;0.00;0.62;;;;;25.30;62.30;;;;;;2259781;61;959;-68
2021/06/30 06:47:28;38939.00;0.13;68.05;0.00;0.00;0.62;;;;;25.30;62.30;;;;;;2260249;61;874;-67
2021/06/30 06:49:54;33975.00;0.11;59.46;0.00;0.00;0.62;;;;;25.40;62.10;;;;;;2259994;61;980;-70
2021/06/30 06:52:19;29367.00;0.10;51.49;0.00;0.00;0.62;;;;;25.40;62.10;;;;;;2260035;61;840;-69
2021/06/30 06:54:45;0.00;0.00;0.62;0.00;0.00;0.62;;;;;25.40;62.00;;;;;;2260030;61;901;-68
2021/06/30 06:57:10;66090.00;0.22;115.00;0.00;0.00;0.62;;;;;25.40;62.00;;;;;;2259911;61;953;-70
2021/06/30 06:59:36;113355.00;0.38;196.62;0.00;0.00;0.62;;;;;25.40;62.10;;;;;;2259700;61;2000;-68
2021/06/30 07:02:02;0.00;0.00;0.62;0.00;0.00;0.62;;;;;25.40;62.10;;;;;;2259616;61;887;-67
2021/06/30 07:04:27;0.00;0.00;0.62;0.00;0.00;0.62;;;;;25.40;62.00;;;;;;2253078;61;935;-70
2021/06/30 07:06:53;0.00;0.00;0.62;0.00;0.00;0.62;;;;;25.40;62.00;;;;;;2260040;61;1070;-71
2021/06/30 07:09:19;0.00;0.00;0.62;0.00;0.00;0.62;;;;;25.40;61.90;;;;;;2259739;61;847;-69
2021/06/30 07:11:44;0.00;0.00;0.62;0.00;0.00;0.62;;;;;25.40;61.90;;;;;;2259577;61;882;-72
2021/06/30 07:14:10;0.00;0.00;0.62;0.00;0.00;0.62;;;;;25.40;61.80;;;;;;2259841;61;941;-72
2021/06/30 07:16:36;0.00;0.00;0.62;0.00;0.00;0.62;;;;;25.50;61.60;;;;;;2259647;61;1031;-70
2021/06/30 07:19:01;76726.00;0.26;133.38;0.00;0.00;0.62;;;;;25.50;61.80;;;;;;2260011;61;2014;-67
2021/06/30 07:21:27;9532.00;0.03;17.14;0.00;0.00;0.62;;;;;25.50;61.60;;;;;;2259922;61;988;-68
2021/06/30 07:23:53;0.00;0.00;0.62;0.00;0.00;0.62;;;;;25.50;61.60;;;;;;2259781;61;1251;-67
2021/06/30 07:26:18;0.00;0.00;0.62;0.00;0.00;0.62;;;;;25.50;61.50;;;;;;2259767;61;846;-71
2021/06/30 07:28:44;0.00;0.00;0.62;0.00;0.00;0.62;;;;;25.50;61.60;;;;;;2259975;61;980;-72
2021/06/30 07:31:10;91732.00;0.31;159.30;0.00;0.00;0.62;;;;;25.50;61.50;;;;;;2255740;61;950;-68
2021/06/30 07:33:37;42254.00;0.14;73.79;0.00;0.00;0.62;;;;;25.50;61.50;;;;;;2260187;61;918;-68
2021/06/30 07:36:03;0.00;0.00;0.62;0.00;0.00;0.62;;;;;25.50;61.20;;;;;;2259591;61;947;-67
2021/06/30 07:38:29;6355.00;0.02;11.63;0.00;0.00;0.62;;;;;25.50;61.40;;;;;;2259929;61;1951;-69
2021/06/30 07:40:55;3622.00;0.01;6.90;0.00;0.00;0.62;;;;;25.50;61.20;;;;;;2259709;61;841;-72
2021/06/30 07:43:20;213953.00;0.71;369.94;0.00;0.00;0.62;;;;;25.50;61.40;;;;;;2259854;61;994;-68
2021/06/30 07:45:46;0.00;0.00;0.62;0.00;0.00;0.62;;;;;25.50;61.40;;;;;;2259816;61;942;-70
2021/06/30 07:48:11;0.00;0.00;0.62;0.00;0.00;0.62;;;;;25.50;61.20;;;;;;2259897;61;972;-68
2021/06/30 07:50:37;17424.00;0.06;30.81;0.00;0.00;0.62;;;;;25.50;61.20;;;;;;2260243;61;1117;-69
2021/06/30 07:53:03;0.00;0.00;0.62;0.00;0.00;0.62;;;;;25.50;61.40;;;;;;2259811;61;972;-70
2021/06/30 07:55:29;55550.00;0.19;96.78;0.00;0.00;0.62;;;;;25.50;61.40;;;;;;2255847;61;1008;-67
2021/06/30 07:57:54;0.00;0.00;0.62;0.00;0.00;0.62;;;;;25.50;61.40;;;;;;2259528;61;993;-68
2021/06/30 08:00:20;116821.00;0.39;202.60;0.00;0.00;0.62;;;;;25.50;61.40;;;;;;2256153;61;2022;-71
2021/06/30 08:02:46;0.00;0.00;0.62;0.00;0.00;0.62;;;;;25.50;61.40;;;;;;2256535;61;1069;-67
2021/06/30 08:05:11;0.00;0.00;0.62;0.00;0.00;0.62;;;;;25.50;61.40;;;;;;2260699;61;914;-68
2021/06/30 08:07:37;46760.00;0.16;81.58;0.00;0.00;0.62;;;;;25.50;61.20;;;;;;2260365;61;895;-72
2021/06/30 08:10:03;26663.00;0.09;46.81;0.00;0.00;0.62;;;;;25.50;61.10;;;;;;2255882;61;895;-68
2021/06/30 08:12:29;413220.00;1.38;712.53;0.00;0.00;0.62;;;;;25.50;61.20;;;;;;2259553;61;1122;-70
2021/06/30 08:14:55;417843.00;1.39;720.48;0.00;0.00;0.62;;;;;25.50;61.10;;;;;;2259466;61;1050;-75
2021/06/30 08:17:20;18993.00;0.06;33.53;0.00;0.00;0.62;;;;;25.60;61.10;;;;;;2258910;61;1280;-70
2021/06/30 08:19:46;15076.00;0.05;26.74;0.00;0.00;0.62;;;;;25.50;61.00;;;;;;2259578;61;2008;-70
2021/06/30 08:22:11;3922.00;0.01;7.42;0.00;0.00;0.62;;;;;25.50;61.10;;;;;;2255684;61;1033;-67
2021/06/30 08:24:41;0.00;0.00;0.62;0.00;0.00;0.62;;;;;25.50;61.10;;;;;;2259614;61;875;-69
2021/06/30 08:27:08;312595.00;1.04;539.57;0.00;0.00;0.62;;;;;25.50;61.20;;;;;;2259971;61;901;-67
2021/06/30 08:29:34;0.00;0.00;0.62;0.00;0.00;0.62;;;;;25.50;61.20;;;;;;2255724;61;941;-69
2021/06/30 08:32:00;1042633.00;3.48;1808.13;0.00;0.00;0.62;;;;;25.50;61.20;;;;;;2259843;61;906;-68
2021/06/30 08:34:26;0.00;0.00;0.62;0.00;0.00;0.62;;;;;25.50;61.10;;;;;;2259852;61;994;-68
2021/06/30 08:36:57;0.00;0.00;0.62;0.00;0.00;0.62;;;;;25.60;61.00;;;;;;2255968;61;919;-69
2021/06/30 08:39:23;0.00;0.00;0.62;0.00;0.00;0.62;;;;;25.60;60.90;;;;;;2259596;61;2007;-70
2021/06/30 08:41:49;0.00;0.00;0.62;0.00;0.00;0.62;;;;;25.60;60.90;;;;;;2259735;61;937;-70
2021/06/30 08:44:14;0.00;0.00;0.62;0.00;0.00;0.62;;;;;25.60;61.00;;;;;;2252421;61;920;-68
2021/06/30 08:46:40;0.00;0.00;0.62;0.00;0.00;0.62;;;;;25.60;61.00;;;;;;2259564;61;888;-67
2021/06/30 08:49:05;0.00;0.00;0.62;0.00;0.00;0.62;;;;;25.60;61.00;;;;;;2252425;61;957;-69
2021/06/30 08:51:31;0.00;0.00;0.62;0.00;0.00;0.62;;;;;25.60;61.00;;;;;;2255503;61;952;-69
2021/06/30 08:53:57;0.00;0.00;0.62;0.00;0.00;0.62;;;;;25.60;60.90;;;;;;2255527;61;1142;-68
2021/06/30 08:56:31;0.00;0.00;0.62;0.00;0.00;0.62;;;;;25.60;60.90;;;;;;2255699;61;896;-67
2021/06/30 08:58:59;6283.00;0.02;11.51;0.00;0.00;0.62;;;;;25.60;60.90;;;;;;2259580;61;1939;-69
2021/06/30 09:01:26;75816.00;0.25;131.81;0.00;0.00;0.62;;;;;25.60;60.90;;;;;;2255598;61;833;-70
2021/06/30 09:03:54;0.00;0.00;0.62;0.00;0.00;0.62;;;;;25.60;60.90;;;;;;2259569;61;918;-69
2021/06/30 09:06:20;0.00;0.00;0.62;0.00;0.00;0.62;;;;;25.60;61.00;;;;;;2259564;61;873;-70
2021/06/30 09:08:45;0.00;0.00;0.62;0.00;0.00;0.62;;;;;25.60;61.00;;;;;;2259450;61;889;-68
2021/06/30 09:11:12;0.00;0.00;0.62;0.00;0.00;0.62;;;;;25.60;60.70;;;;;;2259409;61;874;-69
2021/06/30 09:13:38;0.00;0.00;0.62;0.00;0.00;0.62;;;;;25.70;60.60;;;;;;2255588;61;934;-67
2021/06/30 09:16:04;0.00;0.00;0.62;0.00;0.00;0.62;;;;;25.70;60.30;;;;;;2259392;61;962;-68
2021/06/30 09:18:33;0.00;0.00;0.62;0.00;0.00;0.62;;;;;25.70;60.70;;;;;;2259574;61;1955;-66
2021/06/30 09:21:16;0.00;0.00;0.62;0.00;0.00;0.62;;;;;25.60;60.90;;;;;;2259421;61;950;-67
2021/06/30 09:24:02;0.00;0.00;0.62;0.00;0.00;0.62;;;;;25.50;61.00;;;;;;2259571;61;927;-66
2021/06/30 09:26:28;0.00;0.00;0.62;0.00;0.00;0.62;;;;;25.50;61.00;;;;;;2259203;61;1037;-70
2021/06/30 09:29:09;0.00;0.00;0.62;0.00;0.00;0.62;;;;;25.50;61.00;;;;;;2259593;61;938;-69
2021/06/30 09:31:37;0.00;0.00;0.62;0.00;0.00;0.62;;;;;25.50;60.90;;;;;;2259448;61;898;-73
2021/06/30 09:34:03;0.00;0.00;0.62;0.00;0.00;0.62;;;;;25.50;60.90;;;;;;2259452;61;954;-68
2021/06/30 09:36:50;181032.00;0.60;313.27;0.00;0.00;0.62;;;;;25.50;61.10;;;;;;2259417;61;909;-67
2021/06/30 09:39:16;0.00;0.00;0.62;0.00;0.00;0.62;;;;;25.50;61.10;;;;;;2259161;61;2004;-67
2021/06/30 09:41:44;0.00;0.00;0.62;0.00;0.00;0.62;;;;;25.50;60.90;;;;;;2259578;61;894;-71
2021/06/30 09:44:11;0.00;0.00;0.62;0.00;0.00;0.62;;;;;25.50;60.90;;;;;;2259581;61;891;-72
2021/06/30 09:46:38;0.00;0.00;0.62;0.00;0.00;0.62;;;;;25.50;60.90;;;;;;2259362;61;898;-67
2021/06/30 09:49:06;0.00;0.00;0.62;0.00;0.00;0.62;;;;;25.50;61.00;;;;;;2259585;61;835;-71
2021/06/30 09:51:32;0.00;0.00;0.62;0.00;0.00;0.62;;;;;25.50;61.00;;;;;;2252432;61;921;-68
2021/06/30 09:54:30;0.00;0.00;0.62;0.00;0.00;0.62;;;;;25.50;61.00;;;;;;2259365;61;930;-68
2021/06/30 09:56:58;0.00;0.00;0.62;0.00;0.00;0.62;;;;;25.50;61.00;;;;;;2249241;61;1811;-67
2021/06/30 09:59:27;0.00;0.00;0.62;0.00;0.00;0.62;;;;;25.60;60.90;;;;;;2259235;61;2006;-69
2021/06/30 10:02:12;0.00;0.00;0.62;0.00;0.00;0.62;;;;;25.80;60.30;;;;;;2259153;61;921;-68
2021/06/30 10:04:40;0.00;0.00;0.62;0.00;0.00;0.62;;;;;26.10;59.70;;;;;;2259436;61;988;-67
2021/06/30 10:07:12;0.00;0.00;0.62;0.00;0.00;0.62;;;;;26.10;59.60;;;;;;2259550;61;952;-72
2021/06/30 10:09:39;0.00;0.00;0.62;0.00;0.00;0.62;;;;;26.00;60.00;;;;;;2255591;61;994;-71
2021/06/30 10:12:09;0.00;0.00;0.62;0.00;0.00;0.62;;;;;25.90;60.20;;;;;;2255589;61;845;-71
2021/06/30 10:14:35;0.00;0.00;0.62;0.00;0.00;0.62;;;;;25.80;60.30;;;;;;2259273;61;991;-70
2021/06/30 10:17:00;0.00;0.00;0.62;0.00;0.00;0.62;;;;;25.80;60.30;;;;;;2259407;61;922;-74
2021/06/30 10:19:26;0.00;0.00;0.62;0.00;0.00;0.62;;;;;25.90;60.30;;;;;;2259329;61;1943;-72
2021/06/30 10:21:52;0.00;0.00;0.62;0.00;0.00;0.62;;;;;25.90;60.20;;;;;;2258983;61;875;-73
2021/06/30 10:24:18;0.00;0.00;0.62;0.00;0.00;0.62;;;;;26.00;60.10;;;;;;2258952;61;972;-70
2021/06/30 10:26:44;0.00;0.00;0.62;0.00;0.00;0.62;;;;;26.00;60.00;;;;;;2255333;61;1689;-68
2021/06/30 10:29:10;0.00;0.00;0.62;0.00;0.00;0.62;;;;;26.00;60.00;;;;;;2259468;61;975;-72
2021/06/30 10:31:36;0.00;0.00;0.62;0.00;0.00;0.62;;;;;26.00;60.10;;;;;;2255274;61;980;-72
2021/06/30 10:34:06;0.00;0.00;0.62;0.00;0.00;0.62;;;;;26.00;60.20;;;;;;2259017;61;973;-70